sensor_id;sensor_type;location;lat;lon;timestamp;P1;durP1;ratioP1;P2;durP2;ratioP2
62997;SDS011;55949;52.590;7.330;2022-11-20T00:00:54;16.65;;;9.57;;
62997;SDS011;55949;52.590;7.330;2022-11-20T00:01:55;17.77;;;10.75;;
62997;SDS011;55949;52.590;7.330;2022-11-20T00:02:55;16.23;;;9.27;;
62997;SDS011;55949;52.590;7.330;2022-11-20T00:03:56;17.00;;;9.50;;
62997;SDS011;55949;52.590;7.330;2022-11-20T00:04:58;15.02;;;9.35;;
62997;SDS011;55949;52.590;7.330;2022-11-20T00:05:59;19.15;;;9.77;;
62997;SDS011;55949;52.590;7.330;2022-11-20T00:07:04;18.40;;;9.07;;
62997;SDS011;55949;52.590;7.330;2022-11-20T00:08:05;15.23;;;8.75;;
62997;SDS011;55949;52.590;7.330;2022-11-20T00:09:06;16.40;;;8.68;;
62997;SDS011;55949;52.590;7.330;2022-11-20T00:10:06;17.90;;;9.25;;
62997;SDS011;55949;52.590;7.330;2022-11-20T00:11:11;16.92;;;9.60;;
62997;SDS011;55949;52.590;7.330;2022-11-20T00:12:14;15.15;;;9.77;;
62997;SDS011;55949;52.590;7.330;2022-11-20T00:13:15;21.75;;;11.27;;
62997;SDS011;55949;52.590;7.330;2022-11-20T00:14:15;16.83;;;9.88;;
62997;SDS011;55949;52.590;7.330;2022-11-20T00:15:16;17.55;;;10.10;;
62997;SDS011;55949;52.590;7.330;2022-11-20T00:16:18;19.63;;;11.15;;
62997;SDS011;55949;52.590;7.330;2022-11-20T00:17:20;19.63;;;10.43;;
62997;SDS011;55949;52.590;7.330;2022-11-20T00:18:21;20.00;;;10.60;;
62997;SDS011;55949;52.590;7.330;2022-11-20T00:19:21;17.83;;;10.73;;
62997;SDS011;55949;52.590;7.330;2022-11-20T00:20:22;17.50;;;9.68;;
62997;SDS011;55949;52.590;7.330;2022-11-20T00:21:24;15.55;;;10.27;;
62997;SDS011;55949;52.590;7.330;2022-11-20T00:22:26;20.17;;;12.27;;
62997;SDS011;55949;52.590;7.330;2022-11-20T00:23:27;23.40;;;13.10;;
62997;SDS011;55949;52.590;7.330;2022-11-20T00:24:27;18.58;;;11.15;;
62997;SDS011;55949;52.590;7.330;2022-11-20T00:25:28;21.27;;;11.65;;
62997;SDS011;55949;52.590;7.330;2022-11-20T00:26:29;20.35;;;10.68;;
62997;SDS011;55949;52.590;7.330;2022-11-20T00:27:30;19.05;;;11.43;;
62997;SDS011;55949;52.590;7.330;2022-11-20T00:28:31;23.02;;;12.02;;
62997;SDS011;55949;52.590;7.330;2022-11-20T00:29:31;22.70;;;11.75;;
62997;SDS011;55949;52.590;7.330;2022-11-20T00:30:32;25.30;;;13.10;;
62997;SDS011;55949;52.590;7.330;2022-11-20T00:31:34;22.88;;;12.65;;
62997;SDS011;55949;52.590;7.330;2022-11-20T00:32:35;23.80;;;14.00;;
62997;SDS011;55949;52.590;7.330;2022-11-20T00:33:36;25.98;;;13.57;;
62997;SDS011;55949;52.590;7.330;2022-11-20T00:34:37;26.23;;;13.30;;
62997;SDS011;55949;52.590;7.330;2022-11-20T00:35:38;26.52;;;14.05;;
62997;SDS011;55949;52.590;7.330;2022-11-20T00:36:39;23.27;;;14.18;;
62997;SDS011;55949;52.590;7.330;2022-11-20T00:37:39;22.80;;;14.48;;
62997;SDS011;55949;52.590;7.330;2022-11-20T00:38:40;24.00;;;13.70;;
62997;SDS011;55949;52.590;7.330;2022-11-20T00:39:41;23.48;;;12.63;;
62997;SDS011;55949;52.590;7.330;2022-11-20T00:40:42;23.73;;;13.60;;
62997;SDS011;55949;52.590;7.330;2022-11-20T00:41:42;22.50;;;12.70;;
62997;SDS011;55949;52.590;7.330;2022-11-20T00:42:43;21.00;;;11.95;;
62997;SDS011;55949;52.590;7.330;2022-11-20T00:43:44;20.60;;;11.75;;
62997;SDS011;55949;52.590;7.330;2022-11-20T00:44:44;22.42;;;11.85;;
62997;SDS011;55949;52.590;7.330;2022-11-20T00:45:45;20.40;;;10.75;;
62997;SDS011;55949;52.590;7.330;2022-11-20T00:46:45;18.60;;;10.43;;
62997;SDS011;55949;52.590;7.330;2022-11-20T00:47:46;19.10;;;11.23;;
62997;SDS011;55949;52.590;7.330;2022-11-20T00:48:47;17.65;;;10.48;;
62997;SDS011;55949;52.590;7.330;2022-11-20T00:49:48;19.60;;;11.25;;
62997;SDS011;55949;52.590;7.330;2022-11-20T00:50:48;18.42;;;10.40;;
62997;SDS011;55949;52.590;7.330;2022-11-20T00:51:49;17.85;;;10.30;;
62997;SDS011;55949;52.590;7.330;2022-11-20T00:52:50;18.48;;;11.18;;
62997;SDS011;55949;52.590;7.330;2022-11-20T00:53:50;16.95;;;10.55;;
62997;SDS011;55949;52.590;7.330;2022-11-20T00:54:51;19.85;;;10.35;;
62997;SDS011;55949;52.590;7.330;2022-11-20T00:55:53;22.60;;;10.57;;
62997;SDS011;55949;52.590;7.330;2022-11-20T00:57:05;18.23;;;10.25;;
62997;SDS011;55949;52.590;7.330;2022-11-20T00:58:05;16.30;;;8.90;;
62997;SDS011;55949;52.590;7.330;2022-11-20T00:59:08;16.58;;;8.63;;
62997;SDS011;55949;52.590;7.330;2022-11-20T01:00:10;17.65;;;10.20;;
62997;SDS011;55949;52.590;7.330;2022-11-20T01:02:19;15.38;;;9.32;;
62997;SDS011;55949;52.590;7.330;2022-11-20T01:03:20;15.30;;;7.72;;
62997;SDS011;55949;52.590;7.330;2022-11-20T01:04:20;14.40;;;8.93;;
62997;SDS011;55949;52.590;7.330;2022-11-20T01:05:21;16.25;;;8.30;;
62997;SDS011;55949;52.590;7.330;2022-11-20T01:07:32;12.77;;;7.70;;
62997;SDS011;55949;52.590;7.330;2022-11-20T01:08:34;12.27;;;7.28;;
62997;SDS011;55949;52.590;7.330;2022-11-20T01:09:35;17.13;;;7.72;;
62997;SDS011;55949;52.590;7.330;2022-11-20T01:10:36;15.65;;;8.55;;
62997;SDS011;55949;52.590;7.330;2022-11-20T01:11:38;14.82;;;8.00;;
62997;SDS011;55949;52.590;7.330;2022-11-20T01:12:41;14.88;;;8.40;;
62997;SDS011;55949;52.590;7.330;2022-11-20T01:13:42;14.00;;;8.65;;
62997;SDS011;55949;52.590;7.330;2022-11-20T01:14:45;15.38;;;8.10;;
62997;SDS011;55949;52.590;7.330;2022-11-20T01:15:46;15.02;;;7.32;;
62997;SDS011;55949;52.590;7.330;2022-11-20T01:16:48;17.38;;;8.90;;
62997;SDS011;55949;52.590;7.330;2022-11-20T01:17:50;15.68;;;8.30;;
62997;SDS011;55949;52.590;7.330;2022-11-20T01:18:51;16.02;;;7.95;;
62997;SDS011;55949;52.590;7.330;2022-11-20T01:19:53;18.90;;;9.13;;
62997;SDS011;55949;52.590;7.330;2022-11-20T01:20:54;12.45;;;7.20;;
62997;SDS011;55949;52.590;7.330;2022-11-20T01:21:55;15.23;;;8.02;;
62997;SDS011;55949;52.590;7.330;2022-11-20T01:22:55;13.43;;;7.53;;
62997;SDS011;55949;52.590;7.330;2022-11-20T01:23:56;12.73;;;7.78;;
62997;SDS011;55949;52.590;7.330;2022-11-20T01:24:57;14.32;;;7.68;;
62997;SDS011;55949;52.590;7.330;2022-11-20T01:25:59;13.73;;;7.57;;
62997;SDS011;55949;52.590;7.330;2022-11-20T01:27:01;11.90;;;6.57;;
62997;SDS011;55949;52.590;7.330;2022-11-20T01:28:02;15.27;;;7.68;;
62997;SDS011;55949;52.590;7.330;2022-11-20T01:29:03;16.48;;;7.18;;
62997;SDS011;55949;52.590;7.330;2022-11-20T01:30:04;11.57;;;6.50;;
62997;SDS011;55949;52.590;7.330;2022-11-20T01:32:18;10.25;;;6.35;;
62997;SDS011;55949;52.590;7.330;2022-11-20T01:33:19;12.65;;;7.03;;
62997;SDS011;55949;52.590;7.330;2022-11-20T01:34:20;14.18;;;7.60;;
62997;SDS011;55949;52.590;7.330;2022-11-20T01:35:22;13.57;;;6.60;;
62997;SDS011;55949;52.590;7.330;2022-11-20T01:36:23;13.90;;;7.03;;
62997;SDS011;55949;52.590;7.330;2022-11-20T01:37:25;11.82;;;7.40;;
62997;SDS011;55949;52.590;7.330;2022-11-20T01:38:26;14.05;;;7.65;;
62997;SDS011;55949;52.590;7.330;2022-11-20T01:39:26;12.85;;;7.18;;
62997;SDS011;55949;52.590;7.330;2022-11-20T01:40:27;13.18;;;6.22;;
62997;SDS011;55949;52.590;7.330;2022-11-20T01:41:29;11.13;;;6.90;;
62997;SDS011;55949;52.590;7.330;2022-11-20T01:42:55;13.45;;;5.82;;
62997;SDS011;55949;52.590;7.330;2022-11-20T01:44:41;12.00;;;6.43;;
62997;SDS011;55949;52.590;7.330;2022-11-20T01:46:12;9.18;;;5.53;;
62997;SDS011;55949;52.590;7.330;2022-11-20T01:47:24;14.02;;;6.78;;
62997;SDS011;55949;52.590;7.330;2022-11-20T01:48:40;12.85;;;6.70;;
62997;SDS011;55949;52.590;7.330;2022-11-20T01:49:53;10.88;;;6.18;;
62997;SDS011;55949;52.590;7.330;2022-11-20T01:50:58;12.30;;;6.38;;
62997;SDS011;55949;52.590;7.330;2022-11-20T01:52:05;13.35;;;6.65;;
62997;SDS011;55949;52.590;7.330;2022-11-20T01:53:13;10.50;;;6.47;;
62997;SDS011;55949;52.590;7.330;2022-11-20T01:54:19;9.73;;;6.13;;
62997;SDS011;55949;52.590;7.330;2022-11-20T01:55:28;11.07;;;6.55;;
62997;SDS011;55949;52.590;7.330;2022-11-20T01:56:41;11.20;;;6.03;;
62997;SDS011;55949;52.590;7.330;2022-11-20T01:57:44;10.63;;;5.90;;
62997;SDS011;55949;52.590;7.330;2022-11-20T01:58:48;11.70;;;6.15;;
62997;SDS011;55949;52.590;7.330;2022-11-20T01:59:56;15.55;;;7.72;;
62997;SDS011;55949;52.590;7.330;2022-11-20T02:01:01;11.02;;;6.85;;
62997;SDS011;55949;52.590;7.330;2022-11-20T02:02:04;13.77;;;6.90;;
62997;SDS011;55949;52.590;7.330;2022-11-20T02:03:11;11.35;;;6.63;;
62997;SDS011;55949;52.590;7.330;2022-11-20T02:04:15;11.98;;;6.32;;
62997;SDS011;55949;52.590;7.330;2022-11-20T02:05:19;12.52;;;6.32;;
62997;SDS011;55949;52.590;7.330;2022-11-20T02:06:32;9.90;;;5.60;;
62997;SDS011;55949;52.590;7.330;2022-11-20T02:08:39;12.07;;;5.82;;
62997;SDS011;55949;52.590;7.330;2022-11-20T02:09:39;16.02;;;6.47;;
62997;SDS011;55949;52.590;7.330;2022-11-20T02:10:40;13.98;;;6.70;;
62997;SDS011;55949;52.590;7.330;2022-11-20T02:11:41;13.60;;;6.85;;
62997;SDS011;55949;52.590;7.330;2022-11-20T02:12:41;10.77;;;6.13;;
62997;SDS011;55949;52.590;7.330;2022-11-20T02:14:01;12.40;;;6.03;;
62997;SDS011;55949;52.590;7.330;2022-11-20T02:15:02;10.27;;;5.95;;
62997;SDS011;55949;52.590;7.330;2022-11-20T02:16:04;13.25;;;6.78;;
62997;SDS011;55949;52.590;7.330;2022-11-20T02:17:08;14.75;;;6.95;;
62997;SDS011;55949;52.590;7.330;2022-11-20T02:18:10;14.48;;;7.10;;
62997;SDS011;55949;52.590;7.330;2022-11-20T02:19:21;10.73;;;6.22;;
62997;SDS011;55949;52.590;7.330;2022-11-20T02:20:32;13.50;;;7.25;;
62997;SDS011;55949;52.590;7.330;2022-11-20T02:21:34;12.70;;;7.18;;
62997;SDS011;55949;52.590;7.330;2022-11-20T02:22:56;15.05;;;7.60;;
62997;SDS011;55949;52.590;7.330;2022-11-20T02:25:03;13.40;;;7.00;;
62997;SDS011;55949;52.590;7.330;2022-11-20T02:26:08;12.43;;;7.50;;
62997;SDS011;55949;52.590;7.330;2022-11-20T02:27:12;10.90;;;6.13;;
62997;SDS011;55949;52.590;7.330;2022-11-20T02:28:15;11.80;;;6.88;;
62997;SDS011;55949;52.590;7.330;2022-11-20T02:29:19;11.85;;;6.35;;
62997;SDS011;55949;52.590;7.330;2022-11-20T02:30:25;14.73;;;6.82;;
62997;SDS011;55949;52.590;7.330;2022-11-20T02:31:26;11.30;;;6.53;;
62997;SDS011;55949;52.590;7.330;2022-11-20T02:32:28;11.15;;;5.88;;
62997;SDS011;55949;52.590;7.330;2022-11-20T02:33:31;9.13;;;6.32;;
62997;SDS011;55949;52.590;7.330;2022-11-20T02:34:31;10.95;;;5.85;;
62997;SDS011;55949;52.590;7.330;2022-11-20T02:36:33;13.32;;;7.03;;
62997;SDS011;55949;52.590;7.330;2022-11-20T02:37:37;8.63;;;5.32;;
62997;SDS011;55949;52.590;7.330;2022-11-20T02:38:40;15.13;;;7.00;;
62997;SDS011;55949;52.590;7.330;2022-11-20T02:39:43;11.27;;;6.68;;
62997;SDS011;55949;52.590;7.330;2022-11-20T02:40:45;10.00;;;6.72;;
62997;SDS011;55949;52.590;7.330;2022-11-20T02:41:46;9.23;;;6.00;;
62997;SDS011;55949;52.590;7.330;2022-11-20T02:42:47;12.15;;;6.88;;
62997;SDS011;55949;52.590;7.330;2022-11-20T02:43:48;11.98;;;6.88;;
62997;SDS011;55949;52.590;7.330;2022-11-20T02:44:48;10.75;;;6.28;;
62997;SDS011;55949;52.590;7.330;2022-11-20T02:45:49;10.32;;;6.50;;
62997;SDS011;55949;52.590;7.330;2022-11-20T02:46:50;11.35;;;6.55;;
62997;SDS011;55949;52.590;7.330;2022-11-20T02:47:50;15.90;;;7.10;;
62997;SDS011;55949;52.590;7.330;2022-11-20T02:48:52;13.75;;;8.00;;
62997;SDS011;55949;52.590;7.330;2022-11-20T02:49:52;13.82;;;6.80;;
62997;SDS011;55949;52.590;7.330;2022-11-20T02:50:53;10.27;;;5.65;;
62997;SDS011;55949;52.590;7.330;2022-11-20T02:51:54;9.52;;;5.82;;
62997;SDS011;55949;52.590;7.330;2022-11-20T02:52:54;10.63;;;6.22;;
62997;SDS011;55949;52.590;7.330;2022-11-20T02:53:55;11.18;;;6.53;;
62997;SDS011;55949;52.590;7.330;2022-11-20T02:54:56;11.77;;;7.03;;
62997;SDS011;55949;52.590;7.330;2022-11-20T02:55:57;12.93;;;7.53;;
62997;SDS011;55949;52.590;7.330;2022-11-20T02:56:57;13.45;;;6.68;;
62997;SDS011;55949;52.590;7.330;2022-11-20T02:57:58;13.85;;;7.35;;
62997;SDS011;55949;52.590;7.330;2022-11-20T02:58:59;14.38;;;6.70;;
62997;SDS011;55949;52.590;7.330;2022-11-20T02:59:59;13.27;;;7.63;;
62997;SDS011;55949;52.590;7.330;2022-11-20T03:01:00;15.65;;;7.72;;
62997;SDS011;55949;52.590;7.330;2022-11-20T03:02:00;12.13;;;6.40;;
62997;SDS011;55949;52.590;7.330;2022-11-20T03:03:01;11.73;;;6.97;;
62997;SDS011;55949;52.590;7.330;2022-11-20T03:04:02;12.82;;;7.15;;
62997;SDS011;55949;52.590;7.330;2022-11-20T03:05:03;12.77;;;6.40;;
62997;SDS011;55949;52.590;7.330;2022-11-20T03:06:04;13.38;;;7.40;;
62997;SDS011;55949;52.590;7.330;2022-11-20T03:07:05;12.55;;;7.63;;
62997;SDS011;55949;52.590;7.330;2022-11-20T03:08:07;13.48;;;7.25;;
62997;SDS011;55949;52.590;7.330;2022-11-20T03:09:08;11.52;;;6.50;;
62997;SDS011;55949;52.590;7.330;2022-11-20T03:10:09;12.18;;;6.93;;
62997;SDS011;55949;52.590;7.330;2022-11-20T03:11:10;10.43;;;5.80;;
62997;SDS011;55949;52.590;7.330;2022-11-20T03:12:10;12.43;;;6.75;;
62997;SDS011;55949;52.590;7.330;2022-11-20T03:13:11;10.73;;;6.68;;
62997;SDS011;55949;52.590;7.330;2022-11-20T03:14:12;14.90;;;7.68;;
62997;SDS011;55949;52.590;7.330;2022-11-20T03:15:13;11.15;;;7.13;;
62997;SDS011;55949;52.590;7.330;2022-11-20T03:16:15;14.13;;;6.95;;
62997;SDS011;55949;52.590;7.330;2022-11-20T03:17:17;13.07;;;7.20;;
62997;SDS011;55949;52.590;7.330;2022-11-20T03:18:18;12.13;;;6.60;;
62997;SDS011;55949;52.590;7.330;2022-11-20T03:19:19;14.07;;;6.82;;
62997;SDS011;55949;52.590;7.330;2022-11-20T03:20:19;14.07;;;7.38;;
62997;SDS011;55949;52.590;7.330;2022-11-20T03:21:20;10.85;;;6.50;;
62997;SDS011;55949;52.590;7.330;2022-11-20T03:22:21;12.77;;;6.88;;
62997;SDS011;55949;52.590;7.330;2022-11-20T03:23:22;14.68;;;7.65;;
62997;SDS011;55949;52.590;7.330;2022-11-20T03:24:22;13.77;;;7.13;;
62997;SDS011;55949;52.590;7.330;2022-11-20T03:25:23;14.98;;;7.50;;
62997;SDS011;55949;52.590;7.330;2022-11-20T03:26:24;12.23;;;7.63;;
62997;SDS011;55949;52.590;7.330;2022-11-20T03:27:27;14.68;;;8.35;;
62997;SDS011;55949;52.590;7.330;2022-11-20T03:28:31;13.48;;;8.00;;
62997;SDS011;55949;52.590;7.330;2022-11-20T03:29:32;13.82;;;7.75;;
62997;SDS011;55949;52.590;7.330;2022-11-20T03:30:32;12.82;;;7.32;;
62997;SDS011;55949;52.590;7.330;2022-11-20T03:31:35;14.25;;;8.27;;
62997;SDS011;55949;52.590;7.330;2022-11-20T03:32:37;15.10;;;7.93;;
62997;SDS011;55949;52.590;7.330;2022-11-20T03:33:38;18.05;;;9.05;;
62997;SDS011;55949;52.590;7.330;2022-11-20T03:34:39;13.90;;;7.95;;
62997;SDS011;55949;52.590;7.330;2022-11-20T03:35:40;12.07;;;7.47;;
62997;SDS011;55949;52.590;7.330;2022-11-20T03:36:43;15.65;;;8.90;;
62997;SDS011;55949;52.590;7.330;2022-11-20T03:37:43;18.15;;;9.05;;
62997;SDS011;55949;52.590;7.330;2022-11-20T03:38:46;12.68;;;7.03;;
62997;SDS011;55949;52.590;7.330;2022-11-20T03:39:47;13.82;;;8.30;;
62997;SDS011;55949;52.590;7.330;2022-11-20T03:40:48;13.15;;;8.40;;
62997;SDS011;55949;52.590;7.330;2022-11-20T03:41:49;16.30;;;8.48;;
62997;SDS011;55949;52.590;7.330;2022-11-20T03:42:49;16.23;;;8.60;;
62997;SDS011;55949;52.590;7.330;2022-11-20T03:43:51;11.35;;;7.60;;
62997;SDS011;55949;52.590;7.330;2022-11-20T03:44:53;13.07;;;7.88;;
62997;SDS011;55949;52.590;7.330;2022-11-20T03:45:54;15.88;;;8.50;;
62997;SDS011;55949;52.590;7.330;2022-11-20T03:46:55;18.52;;;9.77;;
62997;SDS011;55949;52.590;7.330;2022-11-20T03:47:56;15.57;;;8.80;;
62997;SDS011;55949;52.590;7.330;2022-11-20T03:48:56;13.98;;;7.72;;
62997;SDS011;55949;52.590;7.330;2022-11-20T03:49:57;13.65;;;7.82;;
62997;SDS011;55949;52.590;7.330;2022-11-20T03:52:31;12.48;;;6.68;;
62997;SDS011;55949;52.590;7.330;2022-11-20T03:53:32;14.23;;;7.78;;
62997;SDS011;55949;52.590;7.330;2022-11-20T03:54:32;14.25;;;7.97;;
62997;SDS011;55949;52.590;7.330;2022-11-20T03:55:33;15.50;;;9.02;;
62997;SDS011;55949;52.590;7.330;2022-11-20T03:56:35;13.60;;;8.43;;
62997;SDS011;55949;52.590;7.330;2022-11-20T03:57:37;17.63;;;9.35;;
62997;SDS011;55949;52.590;7.330;2022-11-20T03:58:38;17.20;;;9.38;;
62997;SDS011;55949;52.590;7.330;2022-11-20T03:59:40;16.30;;;8.45;;
62997;SDS011;55949;52.590;7.330;2022-11-20T04:00:41;14.90;;;8.27;;
62997;SDS011;55949;52.590;7.330;2022-11-20T04:01:41;16.23;;;9.15;;
62997;SDS011;55949;52.590;7.330;2022-11-20T04:02:42;14.88;;;8.27;;
62997;SDS011;55949;52.590;7.330;2022-11-20T04:03:43;16.52;;;8.82;;
62997;SDS011;55949;52.590;7.330;2022-11-20T04:04:44;16.88;;;9.50;;
62997;SDS011;55949;52.590;7.330;2022-11-20T04:05:45;20.20;;;11.38;;
62997;SDS011;55949;52.590;7.330;2022-11-20T04:06:46;16.33;;;10.27;;
62997;SDS011;55949;52.590;7.330;2022-11-20T04:07:46;21.27;;;11.88;;
62997;SDS011;55949;52.590;7.330;2022-11-20T04:08:47;19.23;;;12.27;;
62997;SDS011;55949;52.590;7.330;2022-11-20T04:09:49;21.30;;;12.38;;
62997;SDS011;55949;52.590;7.330;2022-11-20T04:10:49;22.75;;;12.60;;
62997;SDS011;55949;52.590;7.330;2022-11-20T04:11:50;24.40;;;13.35;;
62997;SDS011;55949;52.590;7.330;2022-11-20T04:12:51;21.70;;;12.75;;
62997;SDS011;55949;52.590;7.330;2022-11-20T04:13:53;20.30;;;13.32;;
62997;SDS011;55949;52.590;7.330;2022-11-20T04:15:04;19.98;;;12.40;;
62997;SDS011;55949;52.590;7.330;2022-11-20T04:16:06;21.15;;;12.30;;
62997;SDS011;55949;52.590;7.330;2022-11-20T04:17:07;24.63;;;13.00;;
62997;SDS011;55949;52.590;7.330;2022-11-20T04:18:08;20.63;;;12.23;;
62997;SDS011;55949;52.590;7.330;2022-11-20T04:19:10;15.05;;;10.85;;
62997;SDS011;55949;52.590;7.330;2022-11-20T04:20:12;20.77;;;11.38;;
62997;SDS011;55949;52.590;7.330;2022-11-20T04:21:13;21.40;;;13.30;;
62997;SDS011;55949;52.590;7.330;2022-11-20T04:22:13;21.90;;;11.93;;
62997;SDS011;55949;52.590;7.330;2022-11-20T04:23:14;17.83;;;10.88;;
62997;SDS011;55949;52.590;7.330;2022-11-20T04:24:15;17.08;;;10.48;;
62997;SDS011;55949;52.590;7.330;2022-11-20T04:25:15;19.77;;;12.00;;
62997;SDS011;55949;52.590;7.330;2022-11-20T04:26:16;22.40;;;12.18;;
62997;SDS011;55949;52.590;7.330;2022-11-20T04:27:17;17.20;;;11.27;;
62997;SDS011;55949;52.590;7.330;2022-11-20T04:28:18;20.33;;;11.63;;
62997;SDS011;55949;52.590;7.330;2022-11-20T04:29:19;15.45;;;9.85;;
62997;SDS011;55949;52.590;7.330;2022-11-20T04:30:20;17.33;;;9.93;;
62997;SDS011;55949;52.590;7.330;2022-11-20T04:31:21;18.70;;;10.18;;
62997;SDS011;55949;52.590;7.330;2022-11-20T04:32:23;21.60;;;10.10;;
62997;SDS011;55949;52.590;7.330;2022-11-20T04:33:24;17.73;;;9.68;;
62997;SDS011;55949;52.590;7.330;2022-11-20T04:34:24;19.73;;;11.10;;
62997;SDS011;55949;52.590;7.330;2022-11-20T04:35:25;19.45;;;11.38;;
62997;SDS011;55949;52.590;7.330;2022-11-20T04:36:26;19.65;;;10.43;;
62997;SDS011;55949;52.590;7.330;2022-11-20T04:37:28;16.38;;;9.45;;
62997;SDS011;55949;52.590;7.330;2022-11-20T04:38:29;16.80;;;9.15;;
62997;SDS011;55949;52.590;7.330;2022-11-20T04:39:30;14.90;;;9.82;;
62997;SDS011;55949;52.590;7.330;2022-11-20T04:40:30;18.42;;;9.88;;
62997;SDS011;55949;52.590;7.330;2022-11-20T04:41:32;15.57;;;9.07;;
62997;SDS011;55949;52.590;7.330;2022-11-20T04:42:34;14.82;;;9.05;;
62997;SDS011;55949;52.590;7.330;2022-11-20T04:43:35;17.40;;;9.70;;
62997;SDS011;55949;52.590;7.330;2022-11-20T04:44:36;15.52;;;8.70;;
62997;SDS011;55949;52.590;7.330;2022-11-20T04:45:36;17.35;;;8.85;;
62997;SDS011;55949;52.590;7.330;2022-11-20T04:46:41;17.35;;;9.65;;
62997;SDS011;55949;52.590;7.330;2022-11-20T04:47:42;17.05;;;8.73;;
62997;SDS011;55949;52.590;7.330;2022-11-20T04:48:43;17.00;;;9.40;;
62997;SDS011;55949;52.590;7.330;2022-11-20T04:49:44;16.77;;;9.30;;
62997;SDS011;55949;52.590;7.330;2022-11-20T04:50:44;18.52;;;9.70;;
62997;SDS011;55949;52.590;7.330;2022-11-20T04:51:45;16.90;;;9.95;;
62997;SDS011;55949;52.590;7.330;2022-11-20T04:52:46;15.63;;;8.27;;
62997;SDS011;55949;52.590;7.330;2022-11-20T04:53:47;14.90;;;8.65;;
62997;SDS011;55949;52.590;7.330;2022-11-20T04:54:47;18.15;;;10.68;;
62997;SDS011;55949;52.590;7.330;2022-11-20T04:55:48;16.95;;;9.80;;
62997;SDS011;55949;52.590;7.330;2022-11-20T04:56:49;17.02;;;9.73;;
62997;SDS011;55949;52.590;7.330;2022-11-20T04:57:50;16.85;;;9.40;;
62997;SDS011;55949;52.590;7.330;2022-11-20T04:58:51;18.30;;;9.73;;
62997;SDS011;55949;52.590;7.330;2022-11-20T04:59:52;18.55;;;10.00;;
62997;SDS011;55949;52.590;7.330;2022-11-20T05:00:53;15.98;;;8.95;;
62997;SDS011;55949;52.590;7.330;2022-11-20T05:01:53;19.17;;;9.05;;
62997;SDS011;55949;52.590;7.330;2022-11-20T05:02:54;13.88;;;8.13;;
62997;SDS011;55949;52.590;7.330;2022-11-20T05:03:55;16.83;;;8.80;;
62997;SDS011;55949;52.590;7.330;2022-11-20T05:04:55;15.65;;;9.25;;
62997;SDS011;55949;52.590;7.330;2022-11-20T05:05:56;15.52;;;8.60;;
62997;SDS011;55949;52.590;7.330;2022-11-20T05:07:00;13.23;;;9.13;;
62997;SDS011;55949;52.590;7.330;2022-11-20T05:08:00;16.27;;;9.00;;
62997;SDS011;55949;52.590;7.330;2022-11-20T05:09:01;17.70;;;10.30;;
62997;SDS011;55949;52.590;7.330;2022-11-20T05:10:02;16.65;;;9.27;;
62997;SDS011;55949;52.590;7.330;2022-11-20T05:11:04;17.23;;;8.88;;
62997;SDS011;55949;52.590;7.330;2022-11-20T05:12:09;14.52;;;8.43;;
62997;SDS011;55949;52.590;7.330;2022-11-20T05:13:10;14.50;;;7.93;;
62997;SDS011;55949;52.590;7.330;2022-11-20T05:14:11;15.68;;;8.93;;
62997;SDS011;55949;52.590;7.330;2022-11-20T05:15:12;15.95;;;8.32;;
62997;SDS011;55949;52.590;7.330;2022-11-20T05:16:13;16.27;;;8.88;;
62997;SDS011;55949;52.590;7.330;2022-11-20T05:17:16;16.00;;;9.13;;
62997;SDS011;55949;52.590;7.330;2022-11-20T05:18:17;16.13;;;8.57;;
62997;SDS011;55949;52.590;7.330;2022-11-20T05:19:17;14.00;;;9.05;;
62997;SDS011;55949;52.590;7.330;2022-11-20T05:20:18;17.27;;;9.07;;
62997;SDS011;55949;52.590;7.330;2022-11-20T05:21:19;17.02;;;8.80;;
62997;SDS011;55949;52.590;7.330;2022-11-20T05:22:20;19.17;;;9.63;;
62997;SDS011;55949;52.590;7.330;2022-11-20T05:23:21;18.52;;;10.65;;
62997;SDS011;55949;52.590;7.330;2022-11-20T05:24:22;17.65;;;9.52;;
62997;SDS011;55949;52.590;7.330;2022-11-20T05:25:22;17.67;;;10.07;;
62997;SDS011;55949;52.590;7.330;2022-11-20T05:26:23;18.55;;;9.98;;
62997;SDS011;55949;52.590;7.330;2022-11-20T05:27:24;17.98;;;10.23;;
62997;SDS011;55949;52.590;7.330;2022-11-20T05:28:25;19.00;;;9.32;;
62997;SDS011;55949;52.590;7.330;2022-11-20T05:29:27;16.42;;;9.18;;
62997;SDS011;55949;52.590;7.330;2022-11-20T05:30:28;16.88;;;9.18;;
62997;SDS011;55949;52.590;7.330;2022-11-20T05:31:28;17.67;;;9.45;;
62997;SDS011;55949;52.590;7.330;2022-11-20T05:32:29;16.13;;;8.88;;
62997;SDS011;55949;52.590;7.330;2022-11-20T05:33:30;14.38;;;8.77;;
62997;SDS011;55949;52.590;7.330;2022-11-20T05:34:31;15.38;;;8.93;;
62997;SDS011;55949;52.590;7.330;2022-11-20T05:35:32;16.88;;;9.95;;
62997;SDS011;55949;52.590;7.330;2022-11-20T05:36:33;15.85;;;9.30;;
62997;SDS011;55949;52.590;7.330;2022-11-20T05:37:34;19.65;;;10.32;;
62997;SDS011;55949;52.590;7.330;2022-11-20T05:38:34;16.70;;;9.13;;
62997;SDS011;55949;52.590;7.330;2022-11-20T05:39:35;14.38;;;8.40;;
62997;SDS011;55949;52.590;7.330;2022-11-20T05:40:36;18.20;;;10.00;;
62997;SDS011;55949;52.590;7.330;2022-11-20T05:41:37;14.95;;;9.20;;
62997;SDS011;55949;52.590;7.330;2022-11-20T05:42:37;16.35;;;9.13;;
62997;SDS011;55949;52.590;7.330;2022-11-20T05:43:39;15.07;;;8.52;;
62997;SDS011;55949;52.590;7.330;2022-11-20T05:44:41;17.77;;;9.88;;
62997;SDS011;55949;52.590;7.330;2022-11-20T05:45:41;16.98;;;8.80;;
62997;SDS011;55949;52.590;7.330;2022-11-20T05:46:42;14.80;;;8.18;;
62997;SDS011;55949;52.590;7.330;2022-11-20T05:47:43;15.77;;;9.25;;
62997;SDS011;55949;52.590;7.330;2022-11-20T05:48:44;16.67;;;8.57;;
62997;SDS011;55949;52.590;7.330;2022-11-20T05:49:45;14.20;;;9.18;;
62997;SDS011;55949;52.590;7.330;2022-11-20T05:50:46;13.90;;;8.05;;
62997;SDS011;55949;52.590;7.330;2022-11-20T05:51:47;13.52;;;7.90;;
62997;SDS011;55949;52.590;7.330;2022-11-20T05:52:48;15.77;;;9.43;;
62997;SDS011;55949;52.590;7.330;2022-11-20T05:53:49;16.77;;;9.27;;
62997;SDS011;55949;52.590;7.330;2022-11-20T05:54:50;13.80;;;8.90;;
62997;SDS011;55949;52.590;7.330;2022-11-20T05:56:00;13.88;;;8.93;;
62997;SDS011;55949;52.590;7.330;2022-11-20T05:57:06;15.23;;;8.27;;
62997;SDS011;55949;52.590;7.330;2022-11-20T05:58:06;14.48;;;8.65;;
62997;SDS011;55949;52.590;7.330;2022-11-20T05:59:07;17.23;;;9.63;;
62997;SDS011;55949;52.590;7.330;2022-11-20T06:00:08;16.25;;;9.20;;
62997;SDS011;55949;52.590;7.330;2022-11-20T06:01:30;16.33;;;9.43;;
62997;SDS011;55949;52.590;7.330;2022-11-20T06:02:30;15.98;;;8.82;;
62997;SDS011;55949;52.590;7.330;2022-11-20T06:03:34;16.75;;;9.00;;
62997;SDS011;55949;52.590;7.330;2022-11-20T06:04:34;18.75;;;9.60;;
62997;SDS011;55949;52.590;7.330;2022-11-20T06:05:35;17.23;;;8.98;;
62997;SDS011;55949;52.590;7.330;2022-11-20T06:06:36;15.73;;;9.68;;
62997;SDS011;55949;52.590;7.330;2022-11-20T06:07:37;16.15;;;9.73;;
62997;SDS011;55949;52.590;7.330;2022-11-20T06:08:37;17.42;;;9.75;;
62997;SDS011;55949;52.590;7.330;2022-11-20T06:09:38;15.52;;;9.43;;
62997;SDS011;55949;52.590;7.330;2022-11-20T06:10:39;15.93;;;9.38;;
62997;SDS011;55949;52.590;7.330;2022-11-20T06:11:40;17.65;;;9.55;;
62997;SDS011;55949;52.590;7.330;2022-11-20T06:12:40;16.42;;;9.68;;
62997;SDS011;55949;52.590;7.330;2022-11-20T06:13:41;18.33;;;9.38;;
62997;SDS011;55949;52.590;7.330;2022-11-20T06:14:42;17.45;;;10.57;;
62997;SDS011;55949;52.590;7.330;2022-11-20T06:15:48;18.77;;;9.82;;